< < Back
Terminal Aerodrome Forecast


Current Version              Previous Versions:   1  2  3  4  5  6  7  8  9  

Terminal Aerodrome Forecast

435
FTUS44 KOHX 171700
TAFCSV
TAF
KCSV 171733Z 1718/1818 17011KT P6SM SCT250
     FM180000 18003KT P6SM BKN200
     FM181400 14005KT P6SM BKN060=



Latest METAR

393
SAUS70 KWBC 181000 RRD
MTRCSV
METAR KCSV 180953Z AUTO 00000KT 10SM CLR 10/03 A3030 RMK AO2 SLP254
T01000028


USA.gov is the U.S. government's official web portal to all federal, state and local government web resources and services.